sensor_id;sensor_type;location;lat;lon;timestamp;P1;durP1;ratioP1;P2;durP2;ratioP2
45842;SDS011;31563;51.744;8.252;2023-07-30T00:00:05;1.48;;;1.10;;
45842;SDS011;31563;51.744;8.252;2023-07-30T00:02:34;2.28;;;1.35;;
45842;SDS011;31563;51.744;8.252;2023-07-30T00:05:02;3.20;;;1.30;;
45842;SDS011;31563;51.744;8.252;2023-07-30T00:07:30;2.70;;;1.50;;
45842;SDS011;31563;51.744;8.252;2023-07-30T00:09:59;3.78;;;1.40;;
45842;SDS011;31563;51.744;8.252;2023-07-30T00:12:27;1.75;;;1.33;;
45842;SDS011;31563;51.744;8.252;2023-07-30T00:14:54;2.58;;;1.27;;
45842;SDS011;31563;51.744;8.252;2023-07-30T00:17:22;2.05;;;1.58;;
45842;SDS011;31563;51.744;8.252;2023-07-30T00:19:50;3.17;;;1.73;;
45842;SDS011;31563;51.744;8.252;2023-07-30T00:22:18;2.20;;;1.50;;
45842;SDS011;31563;51.744;8.252;2023-07-30T00:24:49;2.35;;;2.15;;
45842;SDS011;31563;51.744;8.252;2023-07-30T00:27:18;3.08;;;2.00;;
45842;SDS011;31563;51.744;8.252;2023-07-30T00:29:49;2.47;;;1.60;;
45842;SDS011;31563;51.744;8.252;2023-07-30T00:32:17;2.92;;;1.80;;
45842;SDS011;31563;51.744;8.252;2023-07-30T00:34:44;4.00;;;1.45;;
45842;SDS011;31563;51.744;8.252;2023-07-30T00:37:12;4.57;;;1.58;;
45842;SDS011;31563;51.744;8.252;2023-07-30T00:39:40;2.33;;;1.80;;
45842;SDS011;31563;51.744;8.252;2023-07-30T00:42:08;3.20;;;1.60;;
45842;SDS011;31563;51.744;8.252;2023-07-30T00:44:38;2.53;;;1.40;;
45842;SDS011;31563;51.744;8.252;2023-07-30T00:47:07;3.87;;;2.20;;
45842;SDS011;31563;51.744;8.252;2023-07-30T00:49:35;2.95;;;1.80;;
45842;SDS011;31563;51.744;8.252;2023-07-30T00:52:05;2.28;;;2.00;;
45842;SDS011;31563;51.744;8.252;2023-07-30T00:54:34;2.23;;;1.60;;
45842;SDS011;31563;51.744;8.252;2023-07-30T00:57:02;3.30;;;2.35;;
45842;SDS011;31563;51.744;8.252;2023-07-30T00:59:30;3.40;;;1.95;;
45842;SDS011;31563;51.744;8.252;2023-07-30T01:01:59;3.38;;;1.83;;
45842;SDS011;31563;51.744;8.252;2023-07-30T01:04:29;5.93;;;2.00;;
45842;SDS011;31563;51.744;8.252;2023-07-30T01:06:58;3.45;;;1.85;;
45842;SDS011;31563;51.744;8.252;2023-07-30T01:09:26;3.38;;;2.15;;
45842;SDS011;31563;51.744;8.252;2023-07-30T01:11:54;4.03;;;1.90;;
45842;SDS011;31563;51.744;8.252;2023-07-30T01:14:23;3.27;;;2.07;;
45842;SDS011;31563;51.744;8.252;2023-07-30T01:16:52;3.50;;;1.83;;
45842;SDS011;31563;51.744;8.252;2023-07-30T01:19:21;3.33;;;1.83;;
45842;SDS011;31563;51.744;8.252;2023-07-30T01:21:51;2.28;;;1.65;;
45842;SDS011;31563;51.744;8.252;2023-07-30T01:24:19;2.90;;;2.00;;
45842;SDS011;31563;51.744;8.252;2023-07-30T01:26:48;2.55;;;1.88;;
45842;SDS011;31563;51.744;8.252;2023-07-30T01:29:22;2.13;;;1.83;;
45842;SDS011;31563;51.744;8.252;2023-07-30T01:31:56;1.77;;;1.45;;
45842;SDS011;31563;51.744;8.252;2023-07-30T01:34:29;2.78;;;1.65;;
45842;SDS011;31563;51.744;8.252;2023-07-30T01:37:03;2.95;;;2.25;;
45842;SDS011;31563;51.744;8.252;2023-07-30T01:39:32;3.63;;;1.60;;
45842;SDS011;31563;51.744;8.252;2023-07-30T01:42:03;2.75;;;1.55;;
45842;SDS011;31563;51.744;8.252;2023-07-30T01:44:31;2.70;;;1.60;;
45842;SDS011;31563;51.744;8.252;2023-07-30T01:46:59;2.42;;;1.40;;
45842;SDS011;31563;51.744;8.252;2023-07-30T01:49:27;2.92;;;1.67;;
45842;SDS011;31563;51.744;8.252;2023-07-30T01:51:55;2.35;;;1.10;;
45842;SDS011;31563;51.744;8.252;2023-07-30T01:54:24;5.07;;;1.40;;
45842;SDS011;31563;51.744;8.252;2023-07-30T01:56:53;5.22;;;2.10;;
45842;SDS011;31563;51.744;8.252;2023-07-30T01:59:21;3.33;;;1.63;;
45842;SDS011;31563;51.744;8.252;2023-07-30T02:01:49;4.25;;;2.35;;
45842;SDS011;31563;51.744;8.252;2023-07-30T02:04:17;5.50;;;1.45;;
45842;SDS011;31563;51.744;8.252;2023-07-30T02:06:45;2.83;;;1.80;;
45842;SDS011;31563;51.744;8.252;2023-07-30T02:09:13;2.15;;;1.30;;
45842;SDS011;31563;51.744;8.252;2023-07-30T02:11:42;2.13;;;1.70;;
45842;SDS011;31563;51.744;8.252;2023-07-30T02:14:10;2.05;;;1.20;;
45842;SDS011;31563;51.744;8.252;2023-07-30T02:16:38;2.92;;;1.55;;
45842;SDS011;31563;51.744;8.252;2023-07-30T02:19:07;2.97;;;1.35;;
45842;SDS011;31563;51.744;8.252;2023-07-30T02:21:35;2.65;;;1.70;;
45842;SDS011;31563;51.744;8.252;2023-07-30T02:24:05;1.75;;;1.00;;
45842;SDS011;31563;51.744;8.252;2023-07-30T02:26:36;3.22;;;1.50;;
45842;SDS011;31563;51.744;8.252;2023-07-30T02:29:06;2.65;;;1.55;;
45842;SDS011;31563;51.744;8.252;2023-07-30T02:31:34;2.72;;;1.55;;
45842;SDS011;31563;51.744;8.252;2023-07-30T02:34:02;3.28;;;1.45;;
45842;SDS011;31563;51.744;8.252;2023-07-30T02:36:30;4.28;;;1.92;;
45842;SDS011;31563;51.744;8.252;2023-07-30T02:38:58;2.53;;;1.50;;
45842;SDS011;31563;51.744;8.252;2023-07-30T02:41:26;4.70;;;1.67;;
45842;SDS011;31563;51.744;8.252;2023-07-30T02:43:54;3.53;;;1.25;;
45842;SDS011;31563;51.744;8.252;2023-07-30T02:46:24;3.05;;;1.70;;
45842;SDS011;31563;51.744;8.252;2023-07-30T02:48:52;3.00;;;1.40;;
45842;SDS011;31563;51.744;8.252;2023-07-30T02:51:20;4.15;;;1.98;;
45842;SDS011;31563;51.744;8.252;2023-07-30T02:53:51;4.97;;;2.10;;
45842;SDS011;31563;51.744;8.252;2023-07-30T02:56:19;4.93;;;1.50;;
45842;SDS011;31563;51.744;8.252;2023-07-30T02:58:48;3.75;;;1.27;;
45842;SDS011;31563;51.744;8.252;2023-07-30T03:01:16;3.03;;;1.25;;
45842;SDS011;31563;51.744;8.252;2023-07-30T03:03:46;4.33;;;1.20;;
45842;SDS011;31563;51.744;8.252;2023-07-30T03:06:14;2.78;;;1.35;;
45842;SDS011;31563;51.744;8.252;2023-07-30T03:08:44;3.55;;;1.17;;
45842;SDS011;31563;51.744;8.252;2023-07-30T03:11:12;2.47;;;1.40;;
45842;SDS011;31563;51.744;8.252;2023-07-30T03:13:40;3.25;;;1.40;;
45842;SDS011;31563;51.744;8.252;2023-07-30T03:16:08;4.60;;;1.20;;
45842;SDS011;31563;51.744;8.252;2023-07-30T03:18:36;4.72;;;1.67;;
45842;SDS011;31563;51.744;8.252;2023-07-30T03:21:06;3.67;;;1.30;;
45842;SDS011;31563;51.744;8.252;2023-07-30T03:23:34;3.20;;;1.30;;
45842;SDS011;31563;51.744;8.252;2023-07-30T03:26:02;3.00;;;1.42;;
45842;SDS011;31563;51.744;8.252;2023-07-30T03:28:30;2.70;;;1.20;;
45842;SDS011;31563;51.744;8.252;2023-07-30T03:30:58;4.80;;;1.17;;
45842;SDS011;31563;51.744;8.252;2023-07-30T03:33:26;4.82;;;1.58;;
45842;SDS011;31563;51.744;8.252;2023-07-30T03:35:55;5.37;;;1.37;;
45842;SDS011;31563;51.744;8.252;2023-07-30T03:38:24;2.33;;;1.17;;
45842;SDS011;31563;51.744;8.252;2023-07-30T03:40:52;3.00;;;1.52;;
45842;SDS011;31563;51.744;8.252;2023-07-30T03:43:20;2.70;;;1.10;;
45842;SDS011;31563;51.744;8.252;2023-07-30T03:45:49;4.38;;;1.35;;
45842;SDS011;31563;51.744;8.252;2023-07-30T03:48:17;2.90;;;1.50;;
45842;SDS011;31563;51.744;8.252;2023-07-30T03:50:45;3.55;;;1.63;;
45842;SDS011;31563;51.744;8.252;2023-07-30T03:53:13;3.05;;;1.40;;
45842;SDS011;31563;51.744;8.252;2023-07-30T03:55:42;3.17;;;1.38;;
45842;SDS011;31563;51.744;8.252;2023-07-30T03:58:10;4.03;;;1.50;;
45842;SDS011;31563;51.744;8.252;2023-07-30T04:00:38;4.00;;;1.55;;
45842;SDS011;31563;51.744;8.252;2023-07-30T04:03:06;3.75;;;1.40;;
45842;SDS011;31563;51.744;8.252;2023-07-30T04:05:34;4.55;;;1.70;;
45842;SDS011;31563;51.744;8.252;2023-07-30T04:08:02;4.25;;;1.02;;
45842;SDS011;31563;51.744;8.252;2023-07-30T04:10:30;3.40;;;1.63;;
45842;SDS011;31563;51.744;8.252;2023-07-30T04:13:00;4.18;;;1.48;;
45842;SDS011;31563;51.744;8.252;2023-07-30T04:17:56;3.42;;;1.42;;
45842;SDS011;31563;51.744;8.252;2023-07-30T04:20:24;5.20;;;1.17;;
45842;SDS011;31563;51.744;8.252;2023-07-30T04:22:52;2.55;;;1.25;;
45842;SDS011;31563;51.744;8.252;2023-07-30T04:25:20;3.67;;;1.30;;
45842;SDS011;31563;51.744;8.252;2023-07-30T04:27:48;3.05;;;1.20;;
45842;SDS011;31563;51.744;8.252;2023-07-30T04:30:17;3.28;;;1.27;;
45842;SDS011;31563;51.744;8.252;2023-07-30T04:32:45;2.90;;;1.20;;
45842;SDS011;31563;51.744;8.252;2023-07-30T04:35:13;2.90;;;1.30;;
45842;SDS011;31563;51.744;8.252;2023-07-30T04:37:41;3.38;;;1.42;;
45842;SDS011;31563;51.744;8.252;2023-07-30T04:40:09;3.40;;;1.65;;
45842;SDS011;31563;51.744;8.252;2023-07-30T04:42:38;5.38;;;1.65;;
45842;SDS011;31563;51.744;8.252;2023-07-30T04:45:06;2.97;;;1.70;;
45842;SDS011;31563;51.744;8.252;2023-07-30T04:47:36;2.85;;;1.33;;
45842;SDS011;31563;51.744;8.252;2023-07-30T04:50:04;2.47;;;1.27;;
45842;SDS011;31563;51.744;8.252;2023-07-30T04:52:33;3.42;;;1.35;;
45842;SDS011;31563;51.744;8.252;2023-07-30T04:55:01;4.75;;;1.40;;
45842;SDS011;31563;51.744;8.252;2023-07-30T04:57:29;4.95;;;1.48;;
45842;SDS011;31563;51.744;8.252;2023-07-30T04:59:57;4.18;;;1.50;;
45842;SDS011;31563;51.744;8.252;2023-07-30T05:02:25;3.97;;;1.13;;
45842;SDS011;31563;51.744;8.252;2023-07-30T05:04:54;3.05;;;1.50;;
45842;SDS011;31563;51.744;8.252;2023-07-30T05:07:22;4.67;;;1.37;;
45842;SDS011;31563;51.744;8.252;2023-07-30T05:09:50;3.60;;;1.40;;
45842;SDS011;31563;51.744;8.252;2023-07-30T05:12:18;3.40;;;1.58;;
45842;SDS011;31563;51.744;8.252;2023-07-30T05:14:46;5.78;;;1.80;;
45842;SDS011;31563;51.744;8.252;2023-07-30T05:17:13;2.78;;;1.00;;
45842;SDS011;31563;51.744;8.252;2023-07-30T05:19:41;3.45;;;1.30;;
45842;SDS011;31563;51.744;8.252;2023-07-30T05:22:11;2.70;;;1.30;;
45842;SDS011;31563;51.744;8.252;2023-07-30T05:24:39;2.88;;;1.00;;
45842;SDS011;31563;51.744;8.252;2023-07-30T05:27:07;4.35;;;1.20;;
45842;SDS011;31563;51.744;8.252;2023-07-30T05:29:35;4.78;;;1.60;;
45842;SDS011;31563;51.744;8.252;2023-07-30T05:32:03;4.75;;;1.23;;
45842;SDS011;31563;51.744;8.252;2023-07-30T05:34:32;5.65;;;1.75;;
45842;SDS011;31563;51.744;8.252;2023-07-30T05:37:00;5.07;;;1.90;;
45842;SDS011;31563;51.744;8.252;2023-07-30T05:39:30;4.97;;;1.35;;
45842;SDS011;31563;51.744;8.252;2023-07-30T05:41:57;5.18;;;1.50;;
45842;SDS011;31563;51.744;8.252;2023-07-30T05:44:25;3.20;;;1.23;;
45842;SDS011;31563;51.744;8.252;2023-07-30T05:46:53;5.68;;;1.55;;
45842;SDS011;31563;51.744;8.252;2023-07-30T05:49:21;4.35;;;1.60;;
45842;SDS011;31563;51.744;8.252;2023-07-30T05:51:49;2.55;;;0.98;;
45842;SDS011;31563;51.744;8.252;2023-07-30T05:54:17;4.35;;;2.10;;
45842;SDS011;31563;51.744;8.252;2023-07-30T05:56:46;7.55;;;2.53;;
45842;SDS011;31563;51.744;8.252;2023-07-30T05:59:14;5.90;;;2.10;;
45842;SDS011;31563;51.744;8.252;2023-07-30T06:01:47;5.88;;;2.70;;
45842;SDS011;31563;51.744;8.252;2023-07-30T06:04:15;6.53;;;2.50;;
45842;SDS011;31563;51.744;8.252;2023-07-30T06:06:42;7.28;;;2.45;;
45842;SDS011;31563;51.744;8.252;2023-07-30T06:09:10;4.40;;;2.22;;
45842;SDS011;31563;51.744;8.252;2023-07-30T06:11:38;6.75;;;2.30;;
45842;SDS011;31563;51.744;8.252;2023-07-30T06:14:08;7.07;;;2.22;;
45842;SDS011;31563;51.744;8.252;2023-07-30T06:16:36;7.97;;;2.67;;
45842;SDS011;31563;51.744;8.252;2023-07-30T06:19:04;5.65;;;2.13;;
45842;SDS011;31563;51.744;8.252;2023-07-30T06:21:32;11.45;;;2.72;;
45842;SDS011;31563;51.744;8.252;2023-07-30T06:24:00;10.07;;;3.35;;
45842;SDS011;31563;51.744;8.252;2023-07-30T06:26:28;7.13;;;2.85;;
45842;SDS011;31563;51.744;8.252;2023-07-30T06:28:56;7.68;;;3.10;;
45842;SDS011;31563;51.744;8.252;2023-07-30T06:31:26;5.85;;;2.80;;
45842;SDS011;31563;51.744;8.252;2023-07-30T06:33:54;8.20;;;3.55;;
45842;SDS011;31563;51.744;8.252;2023-07-30T06:36:22;11.02;;;3.05;;
45842;SDS011;31563;51.744;8.252;2023-07-30T06:38:50;9.63;;;3.65;;
45842;SDS011;31563;51.744;8.252;2023-07-30T06:41:18;10.73;;;3.92;;
45842;SDS011;31563;51.744;8.252;2023-07-30T06:43:47;7.90;;;2.73;;
45842;SDS011;31563;51.744;8.252;2023-07-30T06:46:15;7.03;;;3.33;;
45842;SDS011;31563;51.744;8.252;2023-07-30T06:48:44;8.60;;;3.20;;
45842;SDS011;31563;51.744;8.252;2023-07-30T06:51:12;10.32;;;3.30;;
45842;SDS011;31563;51.744;8.252;2023-07-30T06:53:40;7.13;;;3.58;;
45842;SDS011;31563;51.744;8.252;2023-07-30T06:56:08;8.75;;;3.97;;
45842;SDS011;31563;51.744;8.252;2023-07-30T06:58:36;10.32;;;4.78;;
45842;SDS011;31563;51.744;8.252;2023-07-30T07:01:06;12.75;;;5.20;;
45842;SDS011;31563;51.744;8.252;2023-07-30T07:03:34;7.90;;;3.83;;
45842;SDS011;31563;51.744;8.252;2023-07-30T07:06:03;10.77;;;5.65;;
45842;SDS011;31563;51.744;8.252;2023-07-30T07:08:32;9.73;;;4.30;;
45842;SDS011;31563;51.744;8.252;2023-07-30T07:11:00;11.15;;;5.63;;
45842;SDS011;31563;51.744;8.252;2023-07-30T07:13:27;10.93;;;4.85;;
45842;SDS011;31563;51.744;8.252;2023-07-30T07:15:55;12.60;;;5.15;;
45842;SDS011;31563;51.744;8.252;2023-07-30T07:18:23;10.23;;;4.95;;
45842;SDS011;31563;51.744;8.252;2023-07-30T07:20:51;12.00;;;5.32;;
45842;SDS011;31563;51.744;8.252;2023-07-30T07:23:20;10.27;;;5.28;;
45842;SDS011;31563;51.744;8.252;2023-07-30T07:25:48;9.48;;;5.22;;
45842;SDS011;31563;51.744;8.252;2023-07-30T07:28:16;13.00;;;6.70;;
45842;SDS011;31563;51.744;8.252;2023-07-30T07:30:45;13.57;;;6.70;;
45842;SDS011;31563;51.744;8.252;2023-07-30T07:33:14;10.60;;;6.00;;
45842;SDS011;31563;51.744;8.252;2023-07-30T07:35:42;11.13;;;5.82;;
45842;SDS011;31563;51.744;8.252;2023-07-30T07:38:10;12.23;;;6.32;;
45842;SDS011;31563;51.744;8.252;2023-07-30T07:40:40;10.93;;;5.68;;
45842;SDS011;31563;51.744;8.252;2023-07-30T07:45:36;13.35;;;6.03;;
45842;SDS011;31563;51.744;8.252;2023-07-30T07:48:04;9.60;;;5.50;;
45842;SDS011;31563;51.744;8.252;2023-07-30T07:50:32;13.13;;;5.47;;
45842;SDS011;31563;51.744;8.252;2023-07-30T07:52:59;11.40;;;4.63;;
45842;SDS011;31563;51.744;8.252;2023-07-30T07:55:27;8.75;;;4.35;;
45842;SDS011;31563;51.744;8.252;2023-07-30T07:57:57;11.05;;;4.65;;
45842;SDS011;31563;51.744;8.252;2023-07-30T08:00:24;11.13;;;5.33;;
45842;SDS011;31563;51.744;8.252;2023-07-30T08:02:52;12.18;;;5.15;;
45842;SDS011;31563;51.744;8.252;2023-07-30T08:05:20;8.95;;;5.07;;
45842;SDS011;31563;51.744;8.252;2023-07-30T08:07:50;10.52;;;4.38;;
45842;SDS011;31563;51.744;8.252;2023-07-30T08:10:18;10.85;;;4.90;;
45842;SDS011;31563;51.744;8.252;2023-07-30T08:12:46;11.82;;;4.93;;
45842;SDS011;31563;51.744;8.252;2023-07-30T08:15:16;10.32;;;5.22;;
45842;SDS011;31563;51.744;8.252;2023-07-30T08:17:44;8.30;;;4.07;;
45842;SDS011;31563;51.744;8.252;2023-07-30T08:20:12;7.70;;;4.20;;
45842;SDS011;31563;51.744;8.252;2023-07-30T08:22:40;9.02;;;4.38;;
45842;SDS011;31563;51.744;8.252;2023-07-30T08:25:08;7.28;;;4.45;;
45842;SDS011;31563;51.744;8.252;2023-07-30T08:27:36;7.05;;;3.60;;
45842;SDS011;31563;51.744;8.252;2023-07-30T08:30:04;8.75;;;4.00;;
45842;SDS011;31563;51.744;8.252;2023-07-30T08:32:34;9.83;;;4.70;;
45842;SDS011;31563;51.744;8.252;2023-07-30T08:35:06;11.98;;;4.55;;
45842;SDS011;31563;51.744;8.252;2023-07-30T08:37:35;10.03;;;4.90;;
45842;SDS011;31563;51.744;8.252;2023-07-30T08:40:03;10.30;;;5.80;;
45842;SDS011;31563;51.744;8.252;2023-07-30T08:42:32;9.53;;;6.03;;
45842;SDS011;31563;51.744;8.252;2023-07-30T08:45:00;11.23;;;6.05;;
45842;SDS011;31563;51.744;8.252;2023-07-30T08:47:28;9.77;;;6.07;;
45842;SDS011;31563;51.744;8.252;2023-07-30T08:49:57;11.48;;;6.15;;
45842;SDS011;31563;51.744;8.252;2023-07-30T08:52:25;10.75;;;6.05;;
45842;SDS011;31563;51.744;8.252;2023-07-30T08:54:55;10.00;;;6.57;;
45842;SDS011;31563;51.744;8.252;2023-07-30T08:57:26;11.50;;;7.20;;
45842;SDS011;31563;51.744;8.252;2023-07-30T08:59:58;8.60;;;6.10;;
45842;SDS011;31563;51.744;8.252;2023-07-30T09:02:30;11.20;;;6.45;;
45842;SDS011;31563;51.744;8.252;2023-07-30T09:05:03;10.27;;;6.53;;
45842;SDS011;31563;51.744;8.252;2023-07-30T09:07:32;10.20;;;6.32;;
45842;SDS011;31563;51.744;8.252;2023-07-30T09:10:00;9.40;;;6.30;;
45842;SDS011;31563;51.744;8.252;2023-07-30T09:12:31;14.68;;;7.03;;
45842;SDS011;31563;51.744;8.252;2023-07-30T09:14:59;11.38;;;6.25;;
45842;SDS011;31563;51.744;8.252;2023-07-30T09:17:28;10.73;;;5.72;;
45842;SDS011;31563;51.744;8.252;2023-07-30T09:19:58;10.02;;;5.78;;
45842;SDS011;31563;51.744;8.252;2023-07-30T09:24:56;10.82;;;5.45;;
45842;SDS011;31563;51.744;8.252;2023-07-30T09:27:25;12.20;;;6.47;;
45842;SDS011;31563;51.744;8.252;2023-07-30T09:29:53;10.20;;;5.57;;
45842;SDS011;31563;51.744;8.252;2023-07-30T09:32:25;11.37;;;6.20;;
45842;SDS011;31563;51.744;8.252;2023-07-30T09:34:53;10.88;;;6.65;;
45842;SDS011;31563;51.744;8.252;2023-07-30T09:37:21;13.10;;;7.63;;
45842;SDS011;31563;51.744;8.252;2023-07-30T09:39:51;12.10;;;8.18;;
45842;SDS011;31563;51.744;8.252;2023-07-30T09:42:19;10.73;;;7.75;;
45842;SDS011;31563;51.744;8.252;2023-07-30T09:44:47;16.02;;;10.38;;
45842;SDS011;31563;51.744;8.252;2023-07-30T09:47:15;12.07;;;9.57;;
45842;SDS011;31563;51.744;8.252;2023-07-30T09:49:43;11.38;;;9.55;;
45842;SDS011;31563;51.744;8.252;2023-07-30T09:52:11;14.00;;;10.65;;
45842;SDS011;31563;51.744;8.252;2023-07-30T09:54:41;12.30;;;9.45;;
45842;SDS011;31563;51.744;8.252;2023-07-30T09:57:10;13.68;;;8.95;;
45842;SDS011;31563;51.744;8.252;2023-07-30T09:59:38;12.30;;;8.90;;
45842;SDS011;31563;51.744;8.252;2023-07-30T10:02:06;14.30;;;8.80;;
45842;SDS011;31563;51.744;8.252;2023-07-30T10:04:38;13.57;;;7.68;;
45842;SDS011;31563;51.744;8.252;2023-07-30T10:07:10;11.50;;;7.20;;
45842;SDS011;31563;51.744;8.252;2023-07-30T10:09:43;11.20;;;6.22;;
45842;SDS011;31563;51.744;8.252;2023-07-30T10:12:16;9.98;;;5.68;;
45842;SDS011;31563;51.744;8.252;2023-07-30T10:14:47;10.48;;;5.70;;
45842;SDS011;31563;51.744;8.252;2023-07-30T10:17:16;9.88;;;4.95;;
45842;SDS011;31563;51.744;8.252;2023-07-30T10:19:46;8.55;;;5.05;;
45842;SDS011;31563;51.744;8.252;2023-07-30T10:22:22;10.57;;;4.93;;
45842;SDS011;31563;51.744;8.252;2023-07-30T10:24:58;9.20;;;4.57;;
45842;SDS011;31563;51.744;8.252;2023-07-30T10:27:36;8.10;;;4.07;;
45842;SDS011;31563;51.744;8.252;2023-07-30T10:30:08;9.03;;;4.43;;
45842;SDS011;31563;51.744;8.252;2023-07-30T10:32:38;9.38;;;4.35;;
45842;SDS011;31563;51.744;8.252;2023-07-30T10:35:06;9.57;;;4.07;;
45842;SDS011;31563;51.744;8.252;2023-07-30T10:37:34;8.32;;;4.18;;
45842;SDS011;31563;51.744;8.252;2023-07-30T10:40:15;8.00;;;4.13;;
45842;SDS011;31563;51.744;8.252;2023-07-30T10:42:46;8.60;;;3.90;;
45842;SDS011;31563;51.744;8.252;2023-07-30T10:45:15;9.18;;;3.92;;
45842;SDS011;31563;51.744;8.252;2023-07-30T10:47:43;7.35;;;3.55;;
45842;SDS011;31563;51.744;8.252;2023-07-30T10:50:11;7.60;;;3.88;;
45842;SDS011;31563;51.744;8.252;2023-07-30T10:52:41;7.78;;;3.90;;
45842;SDS011;31563;51.744;8.252;2023-07-30T10:55:08;7.10;;;3.03;;
45842;SDS011;31563;51.744;8.252;2023-07-30T10:57:36;8.15;;;2.78;;
45842;SDS011;31563;51.744;8.252;2023-07-30T11:00:08;11.02;;;2.83;;
45842;SDS011;31563;51.744;8.252;2023-07-30T11:02:37;6.50;;;2.17;;
45842;SDS011;31563;51.744;8.252;2023-07-30T11:05:12;8.85;;;2.63;;
45842;SDS011;31563;51.744;8.252;2023-07-30T11:07:48;6.85;;;2.50;;
45842;SDS011;31563;51.744;8.252;2023-07-30T11:10:17;9.15;;;2.45;;
45842;SDS011;31563;51.744;8.252;2023-07-30T11:12:45;6.90;;;2.38;;
45842;SDS011;31563;51.744;8.252;2023-07-30T11:15:17;6.55;;;2.22;;
45842;SDS011;31563;51.744;8.252;2023-07-30T11:20:22;5.18;;;2.20;;
45842;SDS011;31563;51.744;8.252;2023-07-30T11:22:53;7.68;;;2.22;;
45842;SDS011;31563;51.744;8.252;2023-07-30T11:25:21;4.10;;;1.35;;
45842;SDS011;31563;51.744;8.252;2023-07-30T11:27:49;4.78;;;1.40;;
45842;SDS011;31563;51.744;8.252;2023-07-30T11:30:19;6.63;;;1.98;;
45842;SDS011;31563;51.744;8.252;2023-07-30T11:32:47;6.18;;;1.88;;
45842;SDS011;31563;51.744;8.252;2023-07-30T11:35:15;5.75;;;1.73;;
45842;SDS011;31563;51.744;8.252;2023-07-30T11:37:44;5.83;;;1.93;;
45842;SDS011;31563;51.744;8.252;2023-07-30T11:40:12;6.38;;;2.00;;
45842;SDS011;31563;51.744;8.252;2023-07-30T11:42:40;8.30;;;2.03;;
45842;SDS011;31563;51.744;8.252;2023-07-30T11:45:21;5.25;;;1.77;;
45842;SDS011;31563;51.744;8.252;2023-07-30T11:47:50;4.72;;;1.77;;
45842;SDS011;31563;51.744;8.252;2023-07-30T11:50:18;4.93;;;1.77;;
45842;SDS011;31563;51.744;8.252;2023-07-30T11:52:53;4.75;;;1.70;;
45842;SDS011;31563;51.744;8.252;2023-07-30T11:55:21;5.03;;;1.85;;
45842;SDS011;31563;51.744;8.252;2023-07-30T11:57:50;6.67;;;1.97;;
45842;SDS011;31563;51.744;8.252;2023-07-30T12:00:21;5.80;;;2.27;;
45842;SDS011;31563;51.744;8.252;2023-07-30T12:02:50;4.78;;;2.63;;
45842;SDS011;31563;51.744;8.252;2023-07-30T12:05:18;6.00;;;1.75;;
45842;SDS011;31563;51.744;8.252;2023-07-30T12:07:47;5.90;;;1.70;;
45842;SDS011;31563;51.744;8.252;2023-07-30T12:10:15;4.57;;;1.42;;
45842;SDS011;31563;51.744;8.252;2023-07-30T12:12:46;4.88;;;1.88;;
45842;SDS011;31563;51.744;8.252;2023-07-30T12:15:19;5.90;;;1.60;;
45842;SDS011;31563;51.744;8.252;2023-07-30T12:17:49;7.30;;;1.17;;
45842;SDS011;31563;51.744;8.252;2023-07-30T12:20:17;4.95;;;1.48;;
45842;SDS011;31563;51.744;8.252;2023-07-30T12:22:45;3.40;;;1.13;;
45842;SDS011;31563;51.744;8.252;2023-07-30T12:25:13;4.88;;;1.10;;
45842;SDS011;31563;51.744;8.252;2023-07-30T12:27:41;4.57;;;1.30;;
45842;SDS011;31563;51.744;8.252;2023-07-30T12:30:09;6.28;;;1.70;;
45842;SDS011;31563;51.744;8.252;2023-07-30T12:32:39;3.75;;;1.15;;
45842;SDS011;31563;51.744;8.252;2023-07-30T12:37:34;3.15;;;0.82;;
45842;SDS011;31563;51.744;8.252;2023-07-30T12:40:03;4.53;;;1.10;;
45842;SDS011;31563;51.744;8.252;2023-07-30T12:42:32;3.88;;;0.85;;
45842;SDS011;31563;51.744;8.252;2023-07-30T12:44:59;4.25;;;1.13;;
45842;SDS011;31563;51.744;8.252;2023-07-30T12:47:27;4.13;;;1.05;;
45842;SDS011;31563;51.744;8.252;2023-07-30T12:49:56;4.70;;;0.98;;
45842;SDS011;31563;51.744;8.252;2023-07-30T12:52:24;4.00;;;1.20;;
45842;SDS011;31563;51.744;8.252;2023-07-30T12:54:52;7.28;;;1.10;;
45842;SDS011;31563;51.744;8.252;2023-07-30T12:57:20;4.18;;;1.30;;
45842;SDS011;31563;51.744;8.252;2023-07-30T12:59:48;5.15;;;1.13;;
45842;SDS011;31563;51.744;8.252;2023-07-30T13:02:16;4.72;;;0.95;;
45842;SDS011;31563;51.744;8.252;2023-07-30T13:04:44;3.80;;;1.33;;
45842;SDS011;31563;51.744;8.252;2023-07-30T13:07:13;4.72;;;1.40;;
45842;SDS011;31563;51.744;8.252;2023-07-30T13:09:41;4.70;;;1.25;;
45842;SDS011;31563;51.744;8.252;2023-07-30T13:12:09;3.63;;;1.00;;
45842;SDS011;31563;51.744;8.252;2023-07-30T13:14:37;5.55;;;1.25;;
45842;SDS011;31563;51.744;8.252;2023-07-30T13:17:05;5.50;;;1.45;;
45842;SDS011;31563;51.744;8.252;2023-07-30T13:19:33;4.25;;;1.30;;
45842;SDS011;31563;51.744;8.252;2023-07-30T13:22:01;5.32;;;1.33;;
45842;SDS011;31563;51.744;8.252;2023-07-30T13:24:30;4.80;;;1.58;;
45842;SDS011;31563;51.744;8.252;2023-07-30T13:26:59;3.95;;;1.13;;
45842;SDS011;31563;51.744;8.252;2023-07-30T13:29:27;7.93;;;1.23;;
45842;SDS011;31563;51.744;8.252;2023-07-30T13:31:54;4.30;;;1.50;;
45842;SDS011;31563;51.744;8.252;2023-07-30T13:34:22;3.15;;;0.60;;
45842;SDS011;31563;51.744;8.252;2023-07-30T13:36:51;1.70;;;0.50;;
45842;SDS011;31563;51.744;8.252;2023-07-30T13:39:19;1.88;;;0.63;;
45842;SDS011;31563;51.744;8.252;2023-07-30T13:41:48;1.52;;;0.65;;
45842;SDS011;31563;51.744;8.252;2023-07-30T13:44:16;2.63;;;0.60;;
45842;SDS011;31563;51.744;8.252;2023-07-30T13:46:44;3.80;;;0.77;;
45842;SDS011;31563;51.744;8.252;2023-07-30T13:49:12;2.63;;;0.60;;
45842;SDS011;31563;51.744;8.252;2023-07-30T13:51:40;4.80;;;1.10;;
45842;SDS011;31563;51.744;8.252;2023-07-30T13:54:08;6.97;;;1.10;;
45842;SDS011;31563;51.744;8.252;2023-07-30T13:56:36;4.80;;;0.60;;
45842;SDS011;31563;51.744;8.252;2023-07-30T13:59:06;4.22;;;0.57;;
45842;SDS011;31563;51.744;8.252;2023-07-30T14:01:34;2.38;;;0.80;;
45842;SDS011;31563;51.744;8.252;2023-07-30T14:04:02;2.55;;;0.60;;
45842;SDS011;31563;51.744;8.252;2023-07-30T14:06:30;3.75;;;1.15;;
45842;SDS011;31563;51.744;8.252;2023-07-30T14:08:58;2.70;;;0.73;;
45842;SDS011;31563;51.744;8.252;2023-07-30T14:11:26;4.57;;;0.70;;
45842;SDS011;31563;51.744;8.252;2023-07-30T14:13:54;3.42;;;0.77;;
45842;SDS011;31563;51.744;8.252;2023-07-30T14:16:25;2.42;;;0.80;;
45842;SDS011;31563;51.744;8.252;2023-07-30T14:18:53;3.13;;;0.85;;
45842;SDS011;31563;51.744;8.252;2023-07-30T14:21:21;2.70;;;0.70;;
45842;SDS011;31563;51.744;8.252;2023-07-30T14:23:49;3.10;;;0.80;;
45842;SDS011;31563;51.744;8.252;2023-07-30T14:26:16;4.03;;;0.80;;
45842;SDS011;31563;51.744;8.252;2023-07-30T14:28:45;3.10;;;1.05;;
45842;SDS011;31563;51.744;8.252;2023-07-30T14:31:13;5.70;;;1.15;;
45842;SDS011;31563;51.744;8.252;2023-07-30T14:33:43;4.53;;;1.20;;
45842;SDS011;31563;51.744;8.252;2023-07-30T14:36:10;3.90;;;0.90;;
45842;SDS011;31563;51.744;8.252;2023-07-30T14:38:38;2.85;;;0.98;;
45842;SDS011;31563;51.744;8.252;2023-07-30T14:41:07;4.63;;;1.05;;
45842;SDS011;31563;51.744;8.252;2023-07-30T14:43:35;4.87;;;0.80;;
45842;SDS011;31563;51.744;8.252;2023-07-30T14:46:03;4.70;;;1.05;;
45842;SDS011;31563;51.744;8.252;2023-07-30T14:48:32;3.27;;;1.10;;
45842;SDS011;31563;51.744;8.252;2023-07-30T14:51:01;4.03;;;0.90;;
45842;SDS011;31563;51.744;8.252;2023-07-30T14:53:29;3.20;;;0.82;;
45842;SDS011;31563;51.744;8.252;2023-07-30T14:55:57;5.03;;;1.00;;
45842;SDS011;31563;51.744;8.252;2023-07-30T14:58:27;4.68;;;1.42;;
45842;SDS011;31563;51.744;8.252;2023-07-30T15:00:55;3.70;;;1.00;;
45842;SDS011;31563;51.744;8.252;2023-07-30T15:03:23;4.22;;;0.95;;
45842;SDS011;31563;51.744;8.252;2023-07-30T15:05:51;6.50;;;1.25;;